Nearby METAR Reports

 

CYOW - Ottawa Intl, Ontario, Canada
Distance from station: NNW 27km
Updated: 04/14/2021 3:20pm
Mostly cloudy
Mostly cloudy
 Wind from N
Wind: N 9 km/h
Temperature: 13°C
Dew Point: 7°C
Humidity: 67%
Barometer: 1013.2 hPa
Clouds: Mostly cloudy
Visibility: 24 km
Cloud details: Few Clouds 1219 m
Mostly cloudy 2134 m
Mostly cloudy 5486 m
2021/04/14 19:20 CYOW 141920Z 36005KT 15SM FEW040 BKN070 BKN180 13/07 A2992 RMK SC1AC5AC1 PRESFR SLP133
KMSS - Massena, New York, USA
Distance from station: ESE 54km
Updated: 04/14/2021 3:53pm
Mostly cloudy
Mostly cloudy
 Wind from N
Wind: N 11 km/h
Temperature: 19°C
Dew Point: 4°C
Humidity: 37%
Barometer: 1012.5 hPa
Clouds: Mostly cloudy
Visibility: 16 km
Cloud details: Mostly cloudy 3048 m
2021/04/14 19:53 KMSS 141953Z AUTO 01006KT 10SM BKN100 19/04 A2990 RMK AO2 SLP125 T01940039
KOGS - Ogdensburg Intl, New York, USA
Distance from station: S 48km
Updated: 04/14/2021 3:55pm
Clear
Clear
 Wind from WSW
Wind: WSW 15 km/h
Temperature: 19°C
Dew Point: 3°C
Humidity: 35%
Barometer: 1011.9 hPa
Clouds: Clear
Visibility: 16 km
2021/04/14 19:55 KOGS 141955Z AUTO 25008KT 10SM CLR 19/03 A2988 RMK AO2
 
CXKE - Kemptville, Ontario, Canada
Distance from station: SW 15km
Updated: 04/14/2021 3:00pm

 Wind from W
Wind: W 11 km/h
Temperature: 15°C
Dew Point: 5°C
Humidity: 51%
2021/04/14 19:00 CXKE 141900Z AUTO 26006KT 15/05 RMK AO1 SLP137 T01510053 56015